Time;durP1;ratioP1;P1;durP2;ratioP2;P2;SDS_P1;SDS_P2;PMS_P1;PMS_P2;Temp;Humidity;BMP_temperature;BMP_pressure;BME280_temperature;BME280_humidity;BME280_pressure;Samples;Min_cycle;Max_cycle;Signal;HPM_P1;HPM_P2
2021/06/16 00:01:05;;;;;;;5.87;3.20;;;16.80;99.90;;;;;;4871993;29;20412;-76
2021/06/16 00:03:31;;;;;;;3.25;2.95;;;16.80;99.90;;;;;;4849593;29;21035;-75
2021/06/16 00:05:56;;;;;;;3.50;3.00;;;16.80;99.90;;;;;;4848982;29;20413;-75
2021/06/16 00:08:22;;;;;;;3.10;2.90;;;16.80;99.90;;;;;;4847744;29;20432;-81
2021/06/16 00:10:48;;;;;;;3.23;2.90;;;16.70;99.90;;;;;;4840908;29;20451;-76
2021/06/16 00:13:13;;;;;;;3.13;2.92;;;16.70;99.90;;;;;;4875969;29;20425;-80
2021/06/16 00:15:40;;;;;;;2.80;2.60;;;16.70;99.90;;;;;;4854775;29;20444;-78
2021/06/16 00:18:06;;;;;;;2.65;2.45;;;16.70;99.90;;;;;;4857297;29;20419;-78
2021/06/16 00:20:32;;;;;;;4.45;3.13;;;16.70;99.90;;;;;;4863190;29;20474;-79
2021/06/16 00:22:58;;;;;;;2.90;2.70;;;16.60;99.90;;;;;;4836960;29;20416;-78
2021/06/16 00:25:24;;;;;;;3.10;2.70;;;16.60;99.90;;;;;;4872165;29;20473;-75
2021/06/16 00:27:50;;;;;;;2.30;2.20;;;16.60;99.90;;;;;;4860424;29;20410;-76
2021/06/16 00:30:16;;;;;;;3.73;2.60;;;16.60;99.90;;;;;;4882064;29;20991;-79
2021/06/16 00:32:43;;;;;;;2.75;2.38;;;16.70;99.90;;;;;;4872082;29;20469;-76
2021/06/16 00:35:09;;;;;;;2.60;2.40;;;16.70;99.90;;;;;;4881753;29;20413;-76
2021/06/16 00:37:35;;;;;;;2.70;2.50;;;16.60;99.90;;;;;;4881269;29;20409;-75
2021/06/16 00:40:07;;;;;;;2.58;2.38;;;16.70;99.90;;;;;;4847687;29;20403;-74
2021/06/16 00:42:33;;;;;;;2.70;2.50;;;16.70;99.90;;;;;;4886676;29;20956;-81
2021/06/16 00:44:59;;;;;;;2.67;2.47;;;16.80;99.90;;;;;;4864282;29;21056;-78
2021/06/16 00:47:24;;;;;;;2.70;2.40;;;16.60;99.90;;;;;;4854109;29;20905;-81
2021/06/16 00:49:50;;;;;;;2.63;2.42;;;16.70;99.90;;;;;;4850038;29;20482;-78
2021/06/16 00:52:16;;;;;;;2.30;2.10;;;16.60;99.90;;;;;;4853024;29;20421;-74
2021/06/16 00:54:41;;;;;;;2.40;2.20;;;16.60;99.90;;;;;;4860731;29;20454;-78
2021/06/16 00:57:07;;;;;;;2.70;2.50;;;16.60;99.90;;;;;;4847022;29;20423;-78
2021/06/16 00:59:36;;;;;;;2.55;2.10;;;16.50;99.90;;;;;;4863380;29;20421;-80
2021/06/16 01:02:02;;;;;;;2.03;1.92;;;16.50;99.90;;;;;;4855792;29;20417;-75
2021/06/16 01:04:30;;;;;;;2.05;1.95;;;16.50;99.90;;;;;;4856382;29;20431;-74
2021/06/16 01:07:02;;;;;;;2.70;2.35;;;16.50;99.90;;;;;;4869957;29;20406;-78
2021/06/16 01:09:39;;;;;;;2.38;2.20;;;16.50;99.90;;;;;;4839764;29;20980;-78
2021/06/16 01:12:37;;;;;;;4.05;2.20;;;16.40;99.90;;;;;;4879858;29;20779;-79
2021/06/16 01:15:07;;;;;;;2.25;2.08;;;16.40;99.90;;;;;;4865638;29;20407;-77
2021/06/16 01:17:44;;;;;;;1.98;1.80;;;16.30;99.90;;;;;;4856506;29;21894;-79
2021/06/16 01:20:34;;;;;;;3.00;2.13;;;16.30;99.90;;;;;;4872603;29;21177;-75
2021/06/16 01:23:09;;;;;;;2.40;2.15;;;16.20;99.90;;;;;;4874174;29;20400;-75
2021/06/16 01:25:41;;;;;;;2.50;2.30;;;16.20;99.90;;;;;;4870826;29;20415;-74
2021/06/16 01:28:07;;;;;;;2.65;2.33;;;16.20;99.90;;;;;;4845734;29;20413;-77
2021/06/16 01:30:33;;;;;;;2.13;1.92;;;16.30;99.90;;;;;;4886013;29;20417;-75
2021/06/16 01:32:58;;;;;;;2.10;2.00;;;16.20;99.90;;;;;;4858402;29;20453;-75
2021/06/16 01:35:26;;;;;;;2.53;2.33;;;16.10;99.90;;;;;;4891073;29;20520;-75
2021/06/16 01:37:51;;;;;;;2.00;1.90;;;16.10;99.90;;;;;;4875521;29;20931;-75
2021/06/16 01:40:17;;;;;;;3.65;2.35;;;16.10;99.90;;;;;;4826796;29;20421;-75
2021/06/16 01:42:43;;;;;;;2.07;1.90;;;16.10;99.90;;;;;;4859170;29;20423;-77
2021/06/16 01:45:09;;;;;;;2.00;1.90;;;16.00;99.90;;;;;;4905125;29;20423;-74
2021/06/16 01:47:35;;;;;;;2.60;2.17;;;16.00;99.90;;;;;;4864558;29;20405;-79
2021/06/16 01:50:01;;;;;;;2.30;2.10;;;15.90;99.90;;;;;;4835328;29;20422;-78
2021/06/16 01:52:26;;;;;;;2.20;2.00;;;15.90;99.90;;;;;;4879541;29;20398;-77
2021/06/16 01:54:52;;;;;;;1.90;1.80;;;15.90;99.90;;;;;;4836572;29;21159;-77
2021/06/16 01:57:18;;;;;;;1.90;1.80;;;15.80;99.90;;;;;;4884445;29;20466;-74
2021/06/16 01:59:44;;;;;;;2.08;1.88;;;15.80;99.90;;;;;;4886648;29;20412;-78
2021/06/16 02:02:09;;;;;;;1.70;1.60;;;15.70;99.90;;;;;;4870856;29;20440;-77
2021/06/16 02:04:35;;;;;;;1.80;1.70;;;15.70;99.90;;;;;;4870116;29;20912;-74
2021/06/16 02:07:12;;;;;;;1.80;1.70;;;15.70;99.90;;;;;;4846271;29;21130;-77
2021/06/16 02:09:37;;;;;;;1.70;1.60;;;15.60;99.90;;;;;;4859239;29;21108;-78
2021/06/16 02:12:04;;;;;;;2.28;1.67;;;15.60;99.90;;;;;;4852683;29;20554;-78
2021/06/16 02:14:29;;;;;;;1.70;1.60;;;15.50;99.90;;;;;;4890142;29;20836;-79
2021/06/16 02:17:10;;;;;;;1.73;1.63;;;15.50;99.90;;;;;;4849778;29;20520;-77
2021/06/16 02:19:35;;;;;;;1.77;1.67;;;15.40;99.90;;;;;;4843893;29;20437;-78
2021/06/16 02:22:03;;;;;;;1.73;1.63;;;15.40;99.90;;;;;;4864915;29;21161;-77
2021/06/16 02:24:29;;;;;;;1.77;1.60;;;15.30;99.90;;;;;;4856007;29;20412;-78
2021/06/16 02:26:55;;;;;;;1.80;1.70;;;15.20;99.90;;;;;;4868530;29;21162;-75
2021/06/16 02:29:21;;;;;;;1.73;1.63;;;15.20;99.90;;;;;;4872854;29;20844;-77
2021/06/16 02:31:46;;;;;;;1.50;1.40;;;15.20;99.90;;;;;;4867579;29;20425;-74
2021/06/16 02:34:12;;;;;;;1.80;1.70;;;15.20;99.90;;;;;;4873016;29;20566;-77
2021/06/16 02:36:42;;;;;;;1.65;1.55;;;15.10;99.90;;;;;;4857902;29;20413;-80
2021/06/16 02:39:11;;;;;;;1.50;1.40;;;15.00;99.90;;;;;;4867945;29;20414;-76
2021/06/16 02:41:37;;;;;;;1.80;1.70;;;15.00;99.90;;;;;;4838056;29;20416;-80
2021/06/16 02:44:04;;;;;;;3.10;1.90;;;15.00;99.90;;;;;;4852005;29;20973;-78
2021/06/16 02:46:30;;;;;;;1.70;1.60;;;15.00;99.90;;;;;;4887714;29;20421;-75
2021/06/16 02:48:56;;;;;;;2.05;1.85;;;14.90;99.90;;;;;;4885858;29;20927;-77
2021/06/16 02:51:21;;;;;;;1.42;1.33;;;14.90;99.90;;;;;;4884519;29;20520;-78
2021/06/16 02:53:47;;;;;;;3.35;1.77;;;14.90;99.90;;;;;;4895642;29;20431;-79
2021/06/16 02:56:13;;;;;;;2.60;1.70;;;14.80;99.90;;;;;;4877109;29;20416;-78
2021/06/16 02:58:41;;;;;;;1.50;1.40;;;14.80;99.90;;;;;;4875988;29;20462;-80
2021/06/16 03:01:07;;;;;;;1.83;1.73;;;14.70;99.90;;;;;;4885754;29;20405;-75
2021/06/16 03:03:32;;;;;;;2.63;1.70;;;14.70;99.90;;;;;;4882229;29;20426;-75
2021/06/16 03:05:58;;;;;;;1.95;1.85;;;14.70;99.90;;;;;;4866066;29;20422;-77
2021/06/16 03:08:24;;;;;;;2.17;1.97;;;14.70;99.90;;;;;;4870935;29;20502;-77
2021/06/16 03:10:50;;;;;;;1.65;1.50;;;14.70;99.90;;;;;;4868514;29;20419;-77
2021/06/16 03:13:16;;;;;;;1.83;1.73;;;14.70;99.90;;;;;;4855984;29;20936;-74
2021/06/16 03:15:42;;;;;;;1.97;1.80;;;14.70;99.90;;;;;;4872477;29;20792;-76
2021/06/16 03:18:08;;;;;;;1.52;1.42;;;14.60;99.90;;;;;;4839714;29;20420;-77
2021/06/16 03:20:35;;;;;;;1.85;1.65;;;14.70;99.90;;;;;;4863974;29;20490;-74
2021/06/16 03:23:00;;;;;;;1.70;1.60;;;14.70;99.90;;;;;;4872452;29;20412;-77
2021/06/16 03:25:27;;;;;;;2.70;1.87;;;14.70;99.90;;;;;;4891250;29;20412;-76
2021/06/16 03:27:53;;;;;;;1.80;1.70;;;14.70;99.90;;;;;;4870149;29;20470;-80
2021/06/16 03:30:22;;;;;;;2.30;1.73;;;14.70;99.90;;;;;;4824808;29;20690;-77
2021/06/16 03:32:49;;;;;;;1.77;1.67;;;14.70;99.90;;;;;;4869062;29;20416;-78
2021/06/16 03:35:15;;;;;;;1.80;1.70;;;14.70;99.90;;;;;;4869104;29;20404;-75
2021/06/16 03:37:41;;;;;;;2.00;1.90;;;14.80;99.90;;;;;;4856416;29;20496;-75
2021/06/16 03:40:07;;;;;;;1.90;1.80;;;14.80;99.90;;;;;;4843170;29;20407;-78
2021/06/16 03:42:33;;;;;;;2.03;1.80;;;14.80;99.90;;;;;;4871449;29;20405;-78
2021/06/16 03:45:01;;;;;;;2.70;1.90;;;14.80;99.90;;;;;;4852740;29;20470;-75
2021/06/16 03:47:28;;;;;;;2.23;2.00;;;14.80;99.90;;;;;;4838640;29;20417;-77
2021/06/16 03:49:53;;;;;;;1.75;1.60;;;14.90;99.90;;;;;;4858063;29;20421;-76
2021/06/16 03:52:19;;;;;;;1.90;1.80;;;14.90;99.90;;;;;;4855422;29;20418;-76
2021/06/16 03:54:45;;;;;;;2.38;2.17;;;15.10;99.90;;;;;;4863593;29;21142;-74
2021/06/16 03:57:11;;;;;;;2.50;2.10;;;15.00;99.90;;;;;;4859539;29;21157;-74
2021/06/16 03:59:37;;;;;;;1.98;1.83;;;15.10;99.90;;;;;;4912754;29;20497;-78
2021/06/16 04:02:02;;;;;;;1.80;1.70;;;15.10;99.90;;;;;;4869079;29;20413;-76
2021/06/16 04:04:28;;;;;;;2.00;1.90;;;15.10;99.90;;;;;;4849887;29;20437;-75
2021/06/16 04:06:54;;;;;;;1.90;1.80;;;15.20;99.90;;;;;;4857159;29;20933;-75
2021/06/16 04:09:20;;;;;;;1.80;1.70;;;15.20;99.90;;;;;;4846253;29;20791;-73
2021/06/16 04:11:45;;;;;;;1.92;1.83;;;15.40;99.90;;;;;;4864959;29;20432;-75
2021/06/16 04:14:11;;;;;;;1.83;1.73;;;15.40;99.90;;;;;;4853496;29;21385;-74
2021/06/16 04:16:41;;;;;;;1.98;1.80;;;15.50;99.90;;;;;;4853336;29;20420;-77
2021/06/16 04:19:06;;;;;;;1.70;1.60;;;15.50;99.90;;;;;;4871144;29;20411;-74
2021/06/16 04:21:32;;;;;;;3.08;1.95;;;15.60;99.90;;;;;;4896190;29;20922;-76
2021/06/16 04:23:58;;;;;;;1.70;1.60;;;15.60;99.90;;;;;;4870753;29;20480;-75
2021/06/16 04:26:24;;;;;;;1.67;1.58;;;15.70;99.90;;;;;;4887886;29;20416;-73
2021/06/16 04:28:50;;;;;;;1.67;1.58;;;15.80;99.90;;;;;;4856321;29;20407;-73
2021/06/16 04:31:16;;;;;;;2.60;2.10;;;15.80;99.90;;;;;;4875242;29;20420;-74
2021/06/16 04:33:41;;;;;;;1.57;1.47;;;16.00;99.90;;;;;;4878046;29;20469;-74
2021/06/16 04:36:07;;;;;;;1.70;1.60;;;16.10;99.90;;;;;;4891560;29;20497;-75
2021/06/16 04:38:34;;;;;;;2.50;1.80;;;16.20;99.90;;;;;;4890434;29;20403;-73
2021/06/16 04:40:59;;;;;;;2.20;1.40;;;16.30;99.90;;;;;;4855451;29;21175;-73
2021/06/16 04:43:25;;;;;;;2.00;1.80;;;16.40;99.90;;;;;;4873168;29;20690;-75
2021/06/16 04:45:51;;;;;;;3.60;1.87;;;16.50;99.90;;;;;;4874930;29;20417;-73
2021/06/16 04:48:16;;;;;;;1.58;1.48;;;16.60;99.90;;;;;;4872231;29;20504;-80
2021/06/16 04:50:42;;;;;;;1.80;1.70;;;16.70;99.90;;;;;;4855972;29;20421;-77
2021/06/16 04:53:08;;;;;;;1.95;1.75;;;16.70;99.90;;;;;;4865339;29;20459;-79
2021/06/16 04:55:34;;;;;;;1.90;1.70;;;16.70;99.90;;;;;;4868089;29;20847;-80
2021/06/16 04:57:59;;;;;;;1.23;1.23;;;16.80;99.90;;;;;;4870750;29;20442;-76
2021/06/16 05:00:25;;;;;;;1.50;1.40;;;16.90;99.90;;;;;;4884120;29;20409;-76
2021/06/16 05:02:57;;;;;;;3.00;1.80;;;17.10;99.90;;;;;;4894853;29;20444;-73
2021/06/16 05:05:23;;;;;;;1.50;1.40;;;17.10;99.90;;;;;;4870872;29;20428;-73
2021/06/16 05:07:49;;;;;;;1.90;1.80;;;17.20;99.90;;;;;;4880407;29;20912;-73
2021/06/16 05:10:15;;;;;;;1.23;1.20;;;17.20;99.90;;;;;;4874305;29;20412;-75
2021/06/16 05:12:42;;;;;;;2.57;1.67;;;17.40;99.90;;;;;;4870736;29;20405;-76
2021/06/16 05:15:08;;;;;;;1.83;1.60;;;17.50;99.90;;;;;;4890068;29;20405;-77
2021/06/16 05:17:34;;;;;;;2.58;1.67;;;17.60;99.90;;;;;;4855975;29;20419;-76
2021/06/16 05:19:59;;;;;;;1.60;1.50;;;17.70;99.90;;;;;;4887256;29;20417;-74
2021/06/16 05:22:28;;;;;;;1.67;1.57;;;17.80;99.90;;;;;;4880577;29;20406;-75
2021/06/16 05:24:54;;;;;;;1.57;1.47;;;17.90;99.90;;;;;;4880759;29;20487;-75
2021/06/16 05:27:19;;;;;;;1.90;1.60;;;18.10;99.90;;;;;;4858743;29;20474;-76
2021/06/16 05:29:45;;;;;;;1.23;1.23;;;18.20;99.90;;;;;;4904089;29;20405;-77
2021/06/16 05:32:11;;;;;;;1.52;1.42;;;18.30;99.90;;;;;;4867777;29;20845;-77
2021/06/16 05:34:37;;;;;;;2.25;1.52;;;18.30;99.90;;;;;;4875006;29;20410;-76
2021/06/16 05:37:05;;;;;;;2.90;1.58;;;18.40;99.90;;;;;;4886783;29;20397;-77
2021/06/16 05:39:32;;;;;;;1.48;1.35;;;18.60;99.90;;;;;;4859575;29;20432;-77
2021/06/16 05:41:57;;;;;;;3.40;1.67;;;18.60;99.90;;;;;;4874919;29;20414;-76
2021/06/16 05:44:23;;;;;;;1.50;1.30;;;18.70;99.90;;;;;;4870739;29;20401;-79
2021/06/16 05:46:49;;;;;;;1.65;1.30;;;18.80;99.90;;;;;;4854723;29;20438;-76
2021/06/16 05:49:14;;;;;;;2.47;1.30;;;18.90;99.90;;;;;;4863699;29;20743;-77
2021/06/16 05:51:40;;;;;;;1.60;1.47;;;19.10;99.90;;;;;;4863422;29;20489;-75
2021/06/16 05:54:10;;;;;;;1.95;1.42;;;19.20;99.90;;;;;;4842050;29;20414;-75
2021/06/16 05:56:37;;;;;;;1.50;1.40;;;19.20;99.90;;;;;;4868647;29;20825;-75
2021/06/16 05:59:03;;;;;;;1.33;1.25;;;19.40;99.90;;;;;;4884654;29;20440;-75
2021/06/16 06:01:28;;;;;;;1.40;1.30;;;19.50;99.90;;;;;;4880172;29;20928;-75
2021/06/16 06:03:54;;;;;;;1.40;1.30;;;19.60;99.90;;;;;;4885331;29;20471;-77
2021/06/16 06:06:20;;;;;;;1.50;1.13;;;19.60;99.90;;;;;;4870149;29;20409;-78
2021/06/16 06:08:45;;;;;;;1.45;1.35;;;19.80;99.90;;;;;;4861860;29;20476;-76
2021/06/16 06:11:11;;;;;;;1.90;1.20;;;19.90;99.90;;;;;;4871410;29;20424;-77
2021/06/16 06:13:37;;;;;;;1.25;1.20;;;19.90;99.90;;;;;;4854846;29;20408;-78
2021/06/16 06:16:03;;;;;;;1.77;1.45;;;20.10;99.90;;;;;;4849213;29;20468;-77
2021/06/16 06:18:32;;;;;;;1.40;1.30;;;20.20;99.90;;;;;;4865812;29;21147;-79
2021/06/16 06:20:58;;;;;;;1.40;1.30;;;20.40;99.90;;;;;;4882085;29;20412;-77
2021/06/16 06:23:23;;;;;;;1.10;1.00;;;20.60;99.90;;;;;;4830679;29;20416;-78
2021/06/16 06:25:49;;;;;;;1.60;1.33;;;20.80;99.90;;;;;;4869080;29;20425;-77
2021/06/16 06:28:16;;;;;;;1.55;1.27;;;20.90;99.90;;;;;;4821231;29;20477;-78
2021/06/16 06:30:41;;;;;;;1.30;1.20;;;21.00;99.90;;;;;;4857850;29;20485;-77
2021/06/16 06:33:07;;;;;;;1.33;1.23;;;21.20;99.90;;;;;;4899480;29;20433;-77
2021/06/16 06:35:33;;;;;;;1.20;1.20;;;21.20;99.90;;;;;;4875776;29;20496;-80
2021/06/16 06:37:58;;;;;;;1.07;1.07;;;21.20;99.90;;;;;;4876869;29;21316;-77
2021/06/16 06:40:24;;;;;;;2.55;1.30;;;21.20;99.90;;;;;;4868188;29;20459;-77
2021/06/16 06:42:50;;;;;;;1.17;1.10;;;21.30;99.90;;;;;;4900334;29;20461;-78
2021/06/16 06:45:15;;;;;;;1.63;1.20;;;21.50;99.90;;;;;;4867458;29;20393;-78
2021/06/16 06:47:41;;;;;;;1.27;1.23;;;21.70;99.90;;;;;;4854075;29;20409;-77
2021/06/16 06:50:14;;;;;;;2.13;1.30;;;21.80;99.90;;;;;;4855422;29;21013;-79
2021/06/16 06:52:40;;;;;;;3.58;1.70;;;22.00;99.90;;;;;;4839252;29;20412;-77
2021/06/16 06:55:06;;;;;;;3.10;1.35;;;22.20;99.90;;;;;;4881071;29;20412;-77
2021/06/16 06:57:32;;;;;;;5.32;1.42;;;22.40;99.90;;;;;;4870471;29;20416;-77
2021/06/16 06:59:58;;;;;;;1.10;1.10;;;22.50;99.90;;;;;;4861229;29;20407;-78
2021/06/16 07:02:25;;;;;;;2.70;1.40;;;22.40;99.90;;;;;;4853306;29;20428;-77
2021/06/16 07:04:50;;;;;;;1.13;1.13;;;22.40;99.90;;;;;;4847552;29;20416;-78
2021/06/16 07:07:16;;;;;;;1.38;1.27;;;22.60;99.90;;;;;;4867409;29;20401;-77
2021/06/16 07:09:44;;;;;;;1.73;1.20;;;23.00;99.90;;;;;;4860975;29;20408;-78
2021/06/16 07:12:10;;;;;;;1.65;1.20;;;23.20;99.90;;;;;;4852857;29;20412;-77
2021/06/16 07:14:38;;;;;;;1.70;1.00;;;23.30;99.90;;;;;;4868041;29;20411;-78
2021/06/16 07:17:03;;;;;;;1.10;1.10;;;23.50;99.90;;;;;;4870286;29;20403;-77
2021/06/16 07:19:29;;;;;;;2.25;1.30;;;23.70;99.90;;;;;;4853100;29;20776;-77
2021/06/16 07:21:55;;;;;;;2.33;1.30;;;23.60;99.90;;;;;;4839144;29;20410;-77
2021/06/16 07:24:20;;;;;;;1.50;1.40;;;23.70;99.90;;;;;;4847162;29;20456;-77
2021/06/16 07:26:46;;;;;;;1.52;1.30;;;23.90;99.90;;;;;;4857444;29;20404;-75
2021/06/16 07:29:12;;;;;;;2.07;1.67;;;24.00;99.90;;;;;;4839309;29;20465;-75
2021/06/16 07:31:37;;;;;;;1.10;1.10;;;24.00;99.90;;;;;;4851446;29;20481;-76
2021/06/16 07:34:03;;;;;;;1.70;1.33;;;24.00;99.90;;;;;;4884414;29;20487;-76
2021/06/16 07:36:29;;;;;;;1.80;1.33;;;24.10;99.90;;;;;;4840248;29;20412;-76
2021/06/16 07:38:55;;;;;;;1.00;1.00;;;24.30;99.90;;;;;;4878948;29;20408;-75
2021/06/16 07:41:26;;;;;;;1.43;1.30;;;24.40;99.90;;;;;;4859838;29;20491;-78
2021/06/16 07:43:52;;;;;;;1.48;1.38;;;24.50;99.90;;;;;;4870315;29;20416;-78
2021/06/16 07:46:18;;;;;;;1.35;1.25;;;24.60;99.90;;;;;;4887574;29;20412;-78
2021/06/16 07:48:43;;;;;;;1.50;1.40;;;24.70;99.90;;;;;;4886196;29;20478;-76
2021/06/16 07:51:09;;;;;;;1.33;1.30;;;24.70;99.90;;;;;;4874458;29;20524;-77
2021/06/16 07:53:34;;;;;;;1.08;1.08;;;24.80;99.90;;;;;;4878098;29;20467;-76
2021/06/16 07:56:00;;;;;;;1.42;1.33;;;24.90;99.90;;;;;;4870589;29;20410;-76
2021/06/16 07:58:26;;;;;;;2.77;1.37;;;25.30;99.90;;;;;;4850884;29;20823;-75
2021/06/16 08:00:52;;;;;;;1.75;1.20;;;25.40;99.90;;;;;;4856805;29;20490;-77
2021/06/16 08:03:18;;;;;;;1.77;1.45;;;25.50;99.90;;;;;;4883491;29;20405;-75
2021/06/16 08:05:44;;;;;;;1.60;1.50;;;25.70;99.90;;;;;;4886865;29;20396;-75
2021/06/16 08:08:11;;;;;;;1.10;1.10;;;26.10;99.90;;;;;;4859084;29;20408;-76
2021/06/16 08:10:37;;;;;;;2.47;1.50;;;26.40;99.90;;;;;;4895596;29;20435;-75
2021/06/16 08:13:03;;;;;;;1.30;1.20;;;26.40;99.90;;;;;;4860439;29;20420;-75
2021/06/16 08:15:28;;;;;;;1.47;1.37;;;26.20;99.90;;;;;;4881375;29;20416;-76
2021/06/16 08:17:55;;;;;;;1.50;1.33;;;26.40;99.90;;;;;;4865024;29;20496;-74
2021/06/16 08:20:21;;;;;;;1.25;1.23;;;26.40;99.50;;;;;;4857645;29;20409;-77
2021/06/16 08:22:46;;;;;;;3.50;1.52;;;26.70;99.90;;;;;;4885286;29;20412;-75
2021/06/16 08:25:13;;;;;;;1.20;1.10;;;26.90;99.90;;;;;;4902332;29;20412;-78
2021/06/16 08:27:39;;;;;;;1.30;1.20;;;27.10;99.10;;;;;;4903404;29;20427;-77
2021/06/16 08:30:06;;;;;;;1.05;1.02;;;27.20;97.40;;;;;;4846129;29;20428;-77
2021/06/16 08:32:31;;;;;;;1.58;1.33;;;27.30;97.60;;;;;;4859181;29;20424;-75
2021/06/16 08:34:57;;;;;;;1.38;1.25;;;27.30;95.80;;;;;;4855673;29;20520;-79
2021/06/16 08:37:23;;;;;;;1.67;1.27;;;27.40;94.40;;;;;;4892634;29;20399;-78
2021/06/16 08:39:48;;;;;;;1.15;1.15;;;27.80;93.80;;;;;;4857602;29;20400;-80
2021/06/16 08:42:14;;;;;;;1.27;1.17;;;27.90;92.60;;;;;;4854665;29;20907;-78
2021/06/16 08:44:40;;;;;;;1.10;1.00;;;27.90;92.50;;;;;;4856416;29;20432;-79
2021/06/16 08:47:06;;;;;;;0.97;0.90;;;28.20;92.30;;;;;;4840503;29;20464;-80
2021/06/16 08:49:33;;;;;;;1.02;1.02;;;28.40;92.10;;;;;;4866180;29;20400;-78
2021/06/16 08:51:59;;;;;;;0.98;0.98;;;28.50;90.80;;;;;;4883609;29;20427;-79
2021/06/16 08:54:25;;;;;;;1.00;1.00;;;28.50;86.90;;;;;;4840428;29;21134;-78
2021/06/16 08:56:50;;;;;;;1.30;1.20;;;28.50;86.70;;;;;;4888395;29;20407;-79
2021/06/16 08:59:16;;;;;;;1.05;1.05;;;28.30;83.70;;;;;;4856631;29;20745;-79
2021/06/16 09:01:42;;;;;;;1.77;1.10;;;28.50;84.10;;;;;;4864309;29;20422;-79
2021/06/16 09:04:07;;;;;;;1.10;1.10;;;28.70;82.40;;;;;;4857424;29;20465;-79
2021/06/16 09:06:33;;;;;;;1.00;1.00;;;29.00;85.00;;;;;;4870683;29;20776;-79
2021/06/16 09:09:03;;;;;;;0.98;0.98;;;29.00;79.10;;;;;;4878477;29;20534;-78
2021/06/16 09:11:38;;;;;;;1.10;1.10;;;29.00;79.00;;;;;;4895071;29;20429;-79
2021/06/16 09:14:22;;;;;;;1.17;1.15;;;28.90;77.50;;;;;;4869892;29;20413;-81
2021/06/16 09:16:52;;;;;;;1.00;1.00;;;29.10;78.70;;;;;;4860510;29;20462;-80
2021/06/16 09:19:30;;;;;;;1.05;1.02;;;29.20;75.20;;;;;;4851486;29;20796;-78
2021/06/16 09:22:02;;;;;;;1.13;1.02;;;29.50;74.70;;;;;;4866826;29;20412;-76
2021/06/16 09:24:48;;;;;;;1.17;1.08;;;29.90;73.80;;;;;;4882330;29;20432;-77
2021/06/16 09:27:36;;;;;;;1.38;1.00;;;30.20;72.00;;;;;;4872584;29;20419;-76
2021/06/16 09:30:04;;;;;;;0.98;0.98;;;30.40;70.70;;;;;;4900021;29;20483;-77
2021/06/16 09:32:44;;;;;;;0.85;0.85;;;30.70;71.10;;;;;;4858319;29;20512;-77
2021/06/16 09:35:30;;;;;;;4.30;1.07;;;30.80;67.10;;;;;;4874695;29;20422;-76
2021/06/16 09:37:57;;;;;;;0.90;0.90;;;30.20;68.00;;;;;;4867540;29;20413;-77
2021/06/16 09:40:27;;;;;;;1.25;1.10;;;30.00;67.10;;;;;;4854709;29;20405;-80
2021/06/16 09:42:57;;;;;;;1.80;1.13;;;30.10;67.80;;;;;;4872049;29;20907;-79
2021/06/16 09:45:23;;;;;;;1.10;1.00;;;30.40;68.90;;;;;;4860793;29;20497;-77
2021/06/16 09:47:48;;;;;;;1.90;1.30;;;31.00;66.50;;;;;;4881491;29;20929;-79
2021/06/16 09:50:14;;;;;;;1.00;1.00;;;31.30;65.30;;;;;;4858757;29;20407;-79
2021/06/16 09:52:46;;;;;;;1.17;1.17;;;31.30;66.10;;;;;;4841591;29;20479;-81
2021/06/16 09:55:12;;;;;;;1.10;1.10;;;31.50;65.40;;;;;;4858151;29;20428;-78
2021/06/16 09:57:38;;;;;;;1.30;1.20;;;31.90;64.80;;;;;;4857676;29;20416;-76
2021/06/16 10:00:09;;;;;;;0.95;0.88;;;31.90;62.40;;;;;;4829161;29;20401;-77
2021/06/16 10:03:13;;;;;;;1.00;1.00;;;32.10;61.10;;;;;;4812113;29;20782;-77
2021/06/16 10:06:10;;;;;;;2.10;1.30;;;32.40;62.40;;;;;;4813494;29;20476;-78
2021/06/16 10:08:37;;;;;;;1.00;1.00;;;32.90;59.20;;;;;;4805200;29;20421;-78
2021/06/16 10:11:08;;;;;;;1.00;1.00;;;33.10;63.00;;;;;;4812515;29;20460;-78
2021/06/16 10:13:34;;;;;;;0.90;0.90;;;32.70;56.70;;;;;;4829076;29;20413;-77
2021/06/16 10:16:00;;;;;;;0.90;0.90;;;32.80;59.40;;;;;;4812149;29;20416;-76
2021/06/16 10:18:27;;;;;;;2.00;1.30;;;33.00;58.30;;;;;;4831913;29;20486;-77
2021/06/16 10:20:53;;;;;;;1.10;1.00;;;32.90;55.70;;;;;;4829495;29;20419;-78
2021/06/16 10:23:19;;;;;;;1.10;1.10;;;33.20;54.20;;;;;;4817821;29;20415;-77
2021/06/16 10:25:45;;;;;;;1.10;1.10;;;33.40;57.90;;;;;;4832811;29;21027;-78
2021/06/16 10:28:12;;;;;;;0.90;0.90;;;33.50;56.10;;;;;;4829382;29;20426;-77
2021/06/16 10:30:42;;;;;;;1.30;1.20;;;33.50;57.00;;;;;;4817452;29;20418;-78
2021/06/16 10:33:37;;;;;;;0.83;0.83;;;33.80;56.60;;;;;;4823823;29;20409;-78
2021/06/16 10:36:09;;;;;;;0.93;0.93;;;33.60;52.30;;;;;;4832572;29;20924;-79
2021/06/16 10:38:35;;;;;;;1.10;1.10;;;33.30;56.20;;;;;;4877924;29;20416;-79
2021/06/16 10:41:01;;;;;;;3.65;1.10;;;33.30;55.50;;;;;;4869516;29;20900;-79
2021/06/16 10:43:31;;;;;;;1.00;1.00;;;34.00;54.90;;;;;;4854090;29;20438;-79
2021/06/16 10:46:04;;;;;;;1.13;1.02;;;34.20;54.10;;;;;;4888387;29;20409;-78
2021/06/16 10:48:56;;;;;;;1.60;1.00;;;34.30;54.00;;;;;;4862349;29;20447;-77
2021/06/16 10:51:39;;;;;;;1.10;1.10;;;34.50;53.50;;;;;;4846168;29;20416;-78
2021/06/16 10:54:25;;;;;;;1.38;1.27;;;34.70;54.60;;;;;;4879054;29;20851;-79
2021/06/16 10:57:04;;;;;;;1.50;1.25;;;34.70;50.20;;;;;;4863944;29;20469;-78
2021/06/16 10:59:46;;;;;;;1.23;1.20;;;34.70;51.90;;;;;;4877966;29;20428;-79
2021/06/16 11:02:16;;;;;;;2.25;1.35;;;34.70;52.50;;;;;;4867030;29;20414;-80
2021/06/16 11:04:42;;;;;;;1.15;1.15;;;35.10;52.40;;;;;;4869175;29;21186;-78
2021/06/16 11:07:26;;;;;;;1.37;1.00;;;35.40;48.30;;;;;;4837651;29;20407;-79
2021/06/16 11:09:54;;;;;;;1.20;1.10;;;35.80;51.90;;;;;;4857698;29;20420;-79
2021/06/16 11:12:37;;;;;;;1.52;1.30;;;36.30;50.80;;;;;;4869168;29;20419;-78
2021/06/16 11:15:05;;;;;;;1.30;0.97;;;36.40;51.00;;;;;;4855270;29;20444;-77
2021/06/16 11:17:33;;;;;;;1.17;1.17;;;36.10;48.90;;;;;;4888843;29;20434;-80
2021/06/16 11:20:00;;;;;;;1.38;1.27;;;36.10;50.60;;;;;;4862228;29;20407;-77
2021/06/16 11:22:29;;;;;;;0.93;0.93;;;36.30;49.00;;;;;;4877070;29;20412;-77
2021/06/16 11:25:11;;;;;;;1.15;1.15;;;36.60;47.80;;;;;;4866035;29;20421;-78
2021/06/16 11:28:02;;;;;;;1.23;1.13;;;36.90;49.10;;;;;;4878093;29;20413;-80
2021/06/16 11:30:31;;;;;;;1.35;1.25;;;37.20;50.00;;;;;;4853607;29;20434;-79
2021/06/16 11:33:12;;;;;;;1.00;1.00;;;37.10;50.00;;;;;;4869841;29;20424;-78
2021/06/16 11:35:38;;;;;;;1.10;1.00;;;37.00;48.30;;;;;;4886956;29;20417;-78
2021/06/16 11:38:04;;;;;;;1.48;1.30;;;37.10;48.50;;;;;;4838757;29;20481;-77
2021/06/16 11:40:31;;;;;;;1.00;1.00;;;37.60;48.70;;;;;;4832630;29;20835;-80
2021/06/16 11:42:57;;;;;;;1.98;1.23;;;37.30;47.20;;;;;;4885239;29;20405;-80
2021/06/16 11:45:27;;;;;;;1.13;1.13;;;36.50;45.30;;;;;;4897354;29;20409;-78
2021/06/16 11:47:54;;;;;;;1.63;1.50;;;36.70;48.10;;;;;;4876629;29;21115;-78
2021/06/16 11:50:33;;;;;;;1.38;1.30;;;36.50;49.50;;;;;;4886099;29;20547;-78
2021/06/16 11:53:04;;;;;;;0.90;0.90;;;36.70;48.90;;;;;;4843777;29;20919;-78
2021/06/16 11:55:45;;;;;;;1.30;1.20;;;36.90;47.10;;;;;;4880915;29;20498;-79
2021/06/16 11:58:28;;;;;;;1.48;1.02;;;37.30;46.20;;;;;;4861114;29;20417;-78
2021/06/16 12:01:13;;;;;;;1.10;1.10;;;37.60;47.40;;;;;;4854624;29;20415;-79
2021/06/16 12:03:43;;;;;;;1.70;1.30;;;37.70;46.30;;;;;;4895750;29;20417;-77
2021/06/16 12:06:13;;;;;;;2.20;1.38;;;37.60;45.70;;;;;;4880794;29;20419;-78
2021/06/16 12:08:40;;;;;;;1.50;1.20;;;37.70;48.60;;;;;;4853474;29;20473;-81
2021/06/16 12:11:25;;;;;;;1.70;1.60;;;37.90;48.90;;;;;;4854213;29;20425;-78
2021/06/16 12:14:09;;;;;;;1.45;1.35;;;37.40;46.40;;;;;;4871706;29;20413;-78
2021/06/16 12:16:42;;;;;;;1.27;1.23;;;37.40;47.00;;;;;;4838597;29;20410;-79
2021/06/16 12:19:20;;;;;;;1.40;1.30;;;37.30;48.80;;;;;;4887141;29;20419;-81
2021/06/16 12:21:59;;;;;;;1.80;1.63;;;37.70;48.00;;;;;;4870784;29;20412;-77
2021/06/16 12:24:27;;;;;;;2.22;1.50;;;37.70;47.60;;;;;;4860097;29;20438;-77
2021/06/16 12:27:15;;;;;;;1.45;1.35;;;37.80;48.10;;;;;;4860950;29;20443;-81
2021/06/16 12:29:49;;;;;;;4.47;1.73;;;37.70;44.50;;;;;;4859514;29;20424;-77
2021/06/16 12:32:33;;;;;;;1.50;1.40;;;37.80;47.40;;;;;;4868766;29;20403;-77
2021/06/16 12:35:26;;;;;;;2.40;1.65;;;38.30;46.70;;;;;;4871481;29;21138;-79
2021/06/16 12:37:54;;;;;;;1.63;1.52;;;37.10;44.80;;;;;;4874493;29;20420;-78
2021/06/16 12:40:37;;;;;;;1.30;1.27;;;36.80;47.20;;;;;;4827113;29;20473;-78
2021/06/16 12:43:03;;;;;;;1.70;1.60;;;36.90;45.20;;;;;;4874373;29;20417;-78
2021/06/16 12:45:29;;;;;;;1.63;1.53;;;37.20;45.60;;;;;;4885831;29;20404;-81
2021/06/16 12:47:56;;;;;;;1.58;1.48;;;37.10;46.70;;;;;;4878906;29;20503;-79
2021/06/16 12:50:30;;;;;;;1.70;1.60;;;37.60;47.30;;;;;;4871637;29;20493;-80
2021/06/16 12:52:56;;;;;;;2.33;1.85;;;38.20;49.60;;;;;;4891843;29;20411;-80
2021/06/16 12:55:22;;;;;;;1.95;1.75;;;38.40;45.50;;;;;;4871625;29;20462;-77